Time;durP1;ratioP1;P1;durP2;ratioP2;P2;SDS_P1;SDS_P2;PMS_P1;PMS_P2;Temp;Humidity;BMP_temperature;BMP_pressure;BME280_temperature;BME280_humidity;BME280_pressure;Samples;Min_cycle;Max_cycle;Signal;HPM_P1;HPM_P2
2022/11/20 00:00:26;;;;;;;8.83;1.57;;;15.70;99.90;;;;;;5091372;28;20063;-70
2022/11/20 00:02:53;;;;;;;9.35;1.60;;;15.80;99.90;;;;;;5091474;28;20269;-71
2022/11/20 00:05:20;;;;;;;13.00;1.52;;;15.80;99.90;;;;;;5091491;28;20077;-70
2022/11/20 00:07:46;;;;;;;8.85;1.80;;;15.80;99.90;;;;;;5091106;28;20016;-71
2022/11/20 00:10:13;;;;;;;7.82;1.20;;;15.80;99.90;;;;;;5101552;28;20023;-70
2022/11/20 00:12:39;;;;;;;;;;;15.90;99.90;;;;;;5111865;28;20129;-71
2022/11/20 00:15:05;;;;;;;6.85;1.42;;;15.90;99.90;;;;;;5112090;28;20336;-71
2022/11/20 00:17:31;;;;;;;7.35;1.30;;;15.90;99.90;;;;;;5111561;28;20047;-70
2022/11/20 00:19:57;;;;;;;7.93;1.20;;;15.90;99.90;;;;;;5093054;28;20016;-71
2022/11/20 00:22:23;;;;;;;11.43;1.20;;;16.00;99.90;;;;;;5111476;28;20791;-70
2022/11/20 00:24:49;;;;;;;9.25;1.67;;;16.00;99.90;;;;;;5111886;28;20027;-70
2022/11/20 00:27:15;;;;;;;7.53;1.30;;;16.00;99.90;;;;;;5093023;28;20024;-72
2022/11/20 00:29:41;;;;;;;4.82;1.25;;;16.10;99.90;;;;;;5111531;28;20024;-71
2022/11/20 00:32:07;;;;;;;8.55;1.25;;;16.10;99.90;;;;;;5111412;28;20034;-70
2022/11/20 00:34:33;;;;;;;8.63;1.58;;;16.10;99.90;;;;;;5111526;28;20028;-69
2022/11/20 00:36:59;;;;;;;6.57;1.10;;;16.00;99.90;;;;;;5092906;28;20460;-70
2022/11/20 00:39:26;;;;;;;9.07;1.27;;;16.00;99.90;;;;;;5111616;28;20262;-70
2022/11/20 00:41:52;;;;;;;5.75;1.13;;;15.90;99.90;;;;;;5111618;28;20682;-71
2022/11/20 00:44:18;;;;;;;9.02;1.45;;;15.90;99.90;;;;;;5111451;28;20428;-70
2022/11/20 00:46:44;;;;;;;8.17;1.03;;;15.80;99.90;;;;;;5111651;28;20077;-70
2022/11/20 00:49:10;;;;;;;8.93;1.07;;;15.80;99.90;;;;;;5111746;28;20261;-70
2022/11/20 00:51:35;;;;;;;7.75;1.30;;;15.90;99.90;;;;;;5111946;28;20028;-70
2022/11/20 00:54:02;;;;;;;9.67;1.40;;;15.90;99.90;;;;;;5115338;28;20126;-68
2022/11/20 00:56:28;;;;;;;9.13;1.10;;;15.90;99.90;;;;;;5115079;28;20538;-70
2022/11/20 00:58:54;;;;;;;7.70;1.42;;;15.90;99.90;;;;;;5115239;28;20038;-71
2022/11/20 01:01:26;;;;;;;4.82;0.73;;;15.90;99.90;;;;;;5096706;28;20016;-70
2022/11/20 01:03:54;;;;;;;7.95;1.48;;;15.90;99.90;;;;;;5115303;28;20030;-70
2022/11/20 01:06:22;;;;;;;11.40;1.40;;;15.90;99.90;;;;;;5115227;28;20023;-69
2022/11/20 01:08:49;;;;;;;5.78;1.70;;;15.90;99.90;;;;;;5115388;28;20121;-70
2022/11/20 01:11:18;;;;;;;7.13;1.70;;;15.90;99.90;;;;;;5115056;28;20043;-69
2022/11/20 01:13:46;;;;;;;8.27;1.10;;;15.90;99.90;;;;;;5115110;28;20111;-71
2022/11/20 01:16:15;;;;;;;5.70;1.10;;;15.90;99.90;;;;;;5115061;28;20028;-71
2022/11/20 01:18:44;;;;;;;6.47;1.08;;;15.80;99.90;;;;;;5114931;28;20486;-70
2022/11/20 01:21:15;;;;;;;9.65;1.10;;;15.80;99.90;;;;;;5115196;28;20119;-71
2022/11/20 01:23:42;;;;;;;8.65;1.10;;;15.80;99.90;;;;;;5115320;28;20024;-71
2022/11/20 01:26:15;;;;;;;5.88;0.90;;;15.80;99.90;;;;;;5096329;28;20051;-71
2022/11/20 01:28:42;;;;;;;7.43;1.15;;;15.80;99.90;;;;;;5115079;28;20374;-71
2022/11/20 01:31:16;;;;;;;8.43;1.02;;;15.80;99.90;;;;;;5114982;28;20058;-70
2022/11/20 01:33:43;;;;;;;5.30;0.93;;;15.80;99.90;;;;;;5096155;28;20533;-71
2022/11/20 01:36:11;;;;;;;8.70;1.17;;;15.70;99.90;;;;;;5114708;28;20020;-72
2022/11/20 01:38:37;;;;;;;7.03;1.00;;;15.70;99.90;;;;;;5114725;28;20036;-70
2022/11/20 01:41:04;;;;;;;9.02;1.30;;;15.70;99.90;;;;;;5114702;28;20084;-70
2022/11/20 01:43:30;;;;;;;;;;;15.60;99.90;;;;;;5115379;28;20019;-71
2022/11/20 01:46:01;;;;;;;4.32;0.85;;;15.60;99.90;;;;;;5114493;28;19967;-70
2022/11/20 01:48:36;;;;;;;10.63;1.30;;;15.60;99.90;;;;;;5114816;28;20023;-71
2022/11/20 01:51:03;;;;;;;10.05;1.17;;;15.70;99.90;;;;;;5114436;28;20024;-70
2022/11/20 01:53:36;;;;;;;10.85;1.08;;;15.70;99.90;;;;;;5114495;28;20452;-70
2022/11/20 01:56:05;;;;;;;9.98;1.20;;;15.70;99.90;;;;;;5114675;28;20028;-70
2022/11/20 01:58:35;;;;;;;9.82;1.67;;;15.60;99.90;;;;;;5114216;28;20039;-71
2022/11/20 02:01:03;;;;;;;8.95;1.33;;;15.60;99.90;;;;;;5114355;28;20019;-70
2022/11/20 02:03:30;;;;;;;6.18;1.00;;;15.60;99.90;;;;;;5114267;28;20098;-71
2022/11/20 02:06:00;;;;;;;9.07;1.35;;;15.60;99.90;;;;;;5114235;28;20041;-70
2022/11/20 02:08:27;;;;;;;9.98;1.42;;;15.60;99.90;;;;;;5114317;28;20019;-71
2022/11/20 02:10:54;;;;;;;7.57;1.05;;;15.60;99.90;;;;;;5113657;28;20027;-70
2022/11/20 02:16:08;;;;;;;8.18;1.30;;;15.60;99.90;;;;;;5113908;28;20046;-70
2022/11/20 02:18:34;;;;;;;8.05;1.10;;;15.50;99.90;;;;;;5114194;28;20448;-70
2022/11/20 02:21:13;;;;;;;6.30;1.10;;;15.50;99.90;;;;;;5113869;28;20020;-70
2022/11/20 02:23:52;;;;;;;11.73;1.50;;;15.50;99.90;;;;;;5113986;28;20287;-70
2022/11/20 02:26:20;;;;;;;7.05;1.10;;;15.50;99.90;;;;;;5114106;28;20511;-70
2022/11/20 02:28:47;;;;;;;7.60;1.05;;;15.40;99.90;;;;;;5113929;28;20159;-70
2022/11/20 02:31:13;;;;;;;8.30;1.20;;;15.40;99.90;;;;;;5113527;28;20023;-71
2022/11/20 02:33:39;;;;;;;8.38;0.93;;;15.40;99.90;;;;;;5113449;28;20043;-70
2022/11/20 02:36:05;;;;;;;9.70;1.30;;;15.40;99.90;;;;;;5113680;28;20024;-70
2022/11/20 02:38:31;;;;;;;7.50;1.17;;;15.40;99.90;;;;;;5113527;28;20043;-70
2022/11/20 02:40:57;;;;;;;5.45;0.80;;;15.30;99.90;;;;;;5113459;28;20016;-70
2022/11/20 02:43:23;;;;;;;11.88;1.52;;;15.30;99.90;;;;;;5113495;28;20019;-71
2022/11/20 02:45:49;;;;;;;9.38;1.50;;;15.30;99.90;;;;;;5113182;28;20034;-71
2022/11/20 02:48:15;;;;;;;12.60;1.40;;;15.30;99.90;;;;;;5113249;28;20026;-70
2022/11/20 02:50:42;;;;;;;11.40;1.37;;;15.40;99.90;;;;;;5113461;28;20027;-71
2022/11/20 02:53:08;;;;;;;6.47;0.88;;;15.40;99.90;;;;;;5113570;28;20054;-70
2022/11/20 02:55:35;;;;;;;10.38;0.98;;;15.40;99.90;;;;;;5094704;28;20106;-69
2022/11/20 02:58:01;;;;;;;11.95;1.83;;;15.40;99.90;;;;;;5113477;28;20049;-71
2022/11/20 03:00:27;;;;;;;8.65;1.25;;;15.40;99.90;;;;;;5112978;28;20061;-71
2022/11/20 03:02:53;;;;;;;7.47;1.20;;;15.30;99.90;;;;;;5112941;28;20027;-71
2022/11/20 03:05:19;;;;;;;7.00;1.23;;;15.30;99.90;;;;;;5113348;28;20344;-71
2022/11/20 03:07:45;;;;;;;9.63;1.43;;;15.30;99.90;;;;;;5112869;28;20082;-70
2022/11/20 03:10:11;;;;;;;8.93;1.30;;;15.20;99.90;;;;;;5112798;28;20038;-70
2022/11/20 03:12:37;;;;;;;7.28;1.20;;;15.10;99.90;;;;;;5094315;28;20141;-70
2022/11/20 03:15:04;;;;;;;10.43;1.67;;;15.00;99.90;;;;;;5094142;28;20027;-71
2022/11/20 03:17:30;;;;;;;6.60;1.52;;;15.00;99.90;;;;;;5094212;28;20304;-70
2022/11/20 03:19:56;;;;;;;6.78;1.20;;;15.00;99.90;;;;;;5094336;28;20058;-70
2022/11/20 03:22:22;;;;;;;13.68;1.15;;;15.10;99.90;;;;;;5112622;28;20041;-70
2022/11/20 03:24:48;;;;;;;9.60;1.20;;;15.10;99.90;;;;;;5112971;28;20102;-71
2022/11/20 03:27:14;;;;;;;9.20;1.20;;;15.10;99.90;;;;;;5112490;28;20495;-70
2022/11/20 03:29:40;;;;;;;11.03;1.30;;;15.10;99.90;;;;;;5112978;28;20016;-70
2022/11/20 03:32:07;;;;;;;7.07;1.20;;;15.10;99.90;;;;;;5112765;28;20262;-71
2022/11/20 03:34:33;;;;;;;10.10;1.58;;;15.20;99.90;;;;;;5094026;28;20258;-71
2022/11/20 03:36:59;;;;;;;8.67;1.10;;;15.20;99.90;;;;;;5112338;28;20040;-70
2022/11/20 03:39:26;;;;;;;13.07;1.07;;;15.20;99.90;;;;;;5112535;28;20088;-70
2022/11/20 03:41:52;;;;;;;13.15;1.20;;;15.10;99.90;;;;;;5112305;28;20020;-69
2022/11/20 03:44:20;;;;;;;6.67;1.30;;;15.10;99.90;;;;;;5112686;28;20081;-69
2022/11/20 03:46:46;;;;;;;7.70;1.38;;;15.10;99.90;;;;;;5112225;28;20105;-71
2022/11/20 03:49:12;;;;;;;9.27;1.40;;;15.00;99.90;;;;;;5112578;28;20417;-70
2022/11/20 03:51:38;;;;;;;8.45;1.20;;;15.00;99.90;;;;;;5112247;28;20038;-70
2022/11/20 03:54:07;;;;;;;11.83;1.63;;;15.00;99.90;;;;;;5112402;28;20155;-69
2022/11/20 03:56:36;;;;;;;8.13;1.20;;;15.00;99.90;;;;;;5093612;28;20317;-69
2022/11/20 03:59:03;;;;;;;10.30;1.10;;;15.00;99.90;;;;;;5112489;28;20124;-69
2022/11/20 04:01:35;;;;;;;5.95;1.08;;;15.10;99.90;;;;;;5112088;28;20019;-70
2022/11/20 04:04:01;;;;;;;8.27;1.00;;;15.20;99.90;;;;;;5112024;28;20463;-71
2022/11/20 04:06:34;;;;;;;5.28;0.88;;;15.20;99.90;;;;;;5094165;28;20549;-71
2022/11/20 04:09:00;;;;;;;5.90;0.80;;;15.30;99.90;;;;;;5094016;28;20031;-70
2022/11/20 04:11:28;;;;;;;;;;;15.40;99.90;;;;;;5112021;28;20116;-71
2022/11/20 04:13:57;;;;;;;8.38;1.10;;;15.40;99.90;;;;;;5111935;28;19972;-70
2022/11/20 04:16:24;;;;;;;5.28;0.73;;;15.40;99.90;;;;;;5112083;28;20027;-71
2022/11/20 04:18:54;;;;;;;9.00;1.25;;;15.40;99.90;;;;;;5112142;28;20471;-70
2022/11/20 04:21:21;;;;;;;7.75;1.10;;;15.40;99.90;;;;;;5093233;28;20028;-71
2022/11/20 04:23:47;;;;;;;7.70;0.90;;;15.40;99.90;;;;;;5092210;28;20382;-71
2022/11/20 04:26:13;;;;;;;10.17;0.80;;;15.40;99.90;;;;;;5110586;28;20109;-71
2022/11/20 04:28:39;;;;;;;4.47;0.83;;;15.40;99.90;;;;;;5113626;28;20680;-70
2022/11/20 04:31:14;;;;;;;7.97;0.90;;;15.40;99.90;;;;;;5114740;28;20068;-70
2022/11/20 04:33:41;;;;;;;8.35;0.93;;;15.40;99.90;;;;;;5114596;28;20047;-70
2022/11/20 04:36:12;;;;;;;8.55;0.95;;;15.40;99.90;;;;;;5114932;28;20027;-70
2022/11/20 04:38:39;;;;;;;10.35;1.25;;;15.40;99.90;;;;;;5115915;28;20040;-71
2022/11/20 04:41:07;;;;;;;4.60;0.80;;;15.40;99.90;;;;;;5115944;28;20467;-69
2022/11/20 04:43:34;;;;;;;5.03;0.98;;;15.40;99.90;;;;;;5115746;28;20354;-71
2022/11/20 04:46:00;;;;;;;;;;;15.40;99.90;;;;;;5115956;28;20020;-70
2022/11/20 04:48:27;;;;;;;5.78;0.75;;;15.40;99.90;;;;;;5115548;28;19919;-70
2022/11/20 04:50:53;;;;;;;6.85;0.80;;;15.40;99.90;;;;;;5115537;28;20123;-70
2022/11/20 04:53:21;;;;;;;5.80;0.80;;;15.30;99.90;;;;;;5115566;28;20043;-70
2022/11/20 04:55:47;;;;;;;9.93;1.20;;;15.20;99.90;;;;;;5115354;28;20023;-71
2022/11/20 04:58:13;;;;;;;7.05;0.82;;;15.20;99.90;;;;;;5115691;28;20154;-70
2022/11/20 05:00:39;;;;;;;8.63;0.98;;;15.20;99.90;;;;;;5115403;28;20063;-70
2022/11/20 05:03:06;;;;;;;6.22;0.90;;;15.30;99.90;;;;;;5115503;28;20039;-71
2022/11/20 05:05:34;;;;;;;6.75;0.95;;;15.30;99.90;;;;;;5115185;28;20040;-70
2022/11/20 05:08:00;;;;;;;5.43;0.90;;;15.30;99.90;;;;;;5115094;28;20034;-69
2022/11/20 05:10:27;;;;;;;6.77;0.77;;;15.30;99.90;;;;;;5115525;28;20379;-70
2022/11/20 05:12:53;;;;;;;8.57;1.10;;;15.30;99.90;;;;;;5102215;28;20281;-70
2022/11/20 05:15:19;;;;;;;6.13;1.50;;;15.30;99.90;;;;;;5105892;28;20024;-71
2022/11/20 05:17:50;;;;;;;7.53;0.93;;;15.40;99.90;;;;;;5108707;28;20529;-71
2022/11/20 05:20:16;;;;;;;5.63;1.10;;;15.40;99.90;;;;;;5095514;28;20016;-70
2022/11/20 05:22:43;;;;;;;7.30;1.00;;;15.40;99.90;;;;;;5094116;28;20028;-70
2022/11/20 05:25:10;;;;;;;8.35;1.13;;;15.40;99.90;;;;;;5093453;28;20074;-70
2022/11/20 05:27:36;;;;;;;5.97;0.80;;;15.40;99.90;;;;;;5099337;28;20449;-70
2022/11/20 05:30:04;;;;;;;4.65;0.75;;;15.30;99.90;;;;;;5097731;28;20051;-68
2022/11/20 05:32:30;;;;;;;10.70;1.52;;;15.20;99.90;;;;;;5102958;28;20032;-71
2022/11/20 05:34:56;;;;;;;9.87;1.60;;;15.10;99.90;;;;;;5096205;28;20019;-71
2022/11/20 05:37:22;;;;;;;5.67;1.10;;;15.00;99.90;;;;;;5091823;28;20653;-70
2022/11/20 05:39:48;;;;;;;3.77;0.60;;;14.90;99.90;;;;;;5083915;28;20289;-70
2022/11/20 05:42:32;;;;;;;5.63;0.98;;;14.80;99.90;;;;;;5090783;28;20062;-63
2022/11/20 05:45:00;;;;;;;4.72;0.73;;;14.60;99.90;;;;;;5088954;28;20051;-70
2022/11/20 05:47:27;;;;;;;4.53;0.60;;;14.60;99.90;;;;;;5091660;28;20034;-71
2022/11/20 05:49:54;;;;;;;3.25;0.70;;;14.40;99.90;;;;;;5092175;28;20020;-68
2022/11/20 05:52:21;;;;;;;3.00;0.60;;;14.40;99.90;;;;;;5083619;28;20422;-69
2022/11/20 05:54:47;;;;;;;2.70;0.60;;;14.50;99.90;;;;;;5063915;28;20472;-67
2022/11/20 05:57:13;;;;;;;1.73;0.57;;;14.40;99.90;;;;;;5081902;28;20452;-67
2022/11/20 05:59:39;;;;;;;2.30;0.57;;;14.30;99.90;;;;;;5083541;28;20028;-70
2022/11/20 06:02:05;;;;;;;3.47;0.70;;;14.20;99.90;;;;;;5081786;28;20031;-69
2022/11/20 06:04:31;;;;;;;3.17;0.87;;;14.20;99.90;;;;;;5078129;28;20025;-69
2022/11/20 06:06:57;;;;;;;3.20;0.60;;;14.10;99.90;;;;;;5073752;28;20028;-69
2022/11/20 06:09:24;;;;;;;2.97;0.63;;;14.00;99.90;;;;;;5088836;28;20151;-67
2022/11/20 06:11:49;;;;;;;2.50;0.80;;;14.00;99.90;;;;;;5095671;28;20044;-66
2022/11/20 06:14:16;;;;;;;2.33;0.73;;;14.00;99.90;;;;;;5083740;28;20441;-70
2022/11/20 06:16:42;;;;;;;3.83;0.82;;;14.00;99.90;;;;;;5094202;28;20016;-69
2022/11/20 06:19:08;;;;;;;4.03;0.80;;;13.90;99.90;;;;;;5090373;28;20024;-70
2022/11/20 06:21:34;;;;;;;3.33;0.93;;;13.90;99.90;;;;;;5093668;28;20400;-71
2022/11/20 06:24:00;;;;;;;6.30;0.93;;;13.90;99.90;;;;;;5094914;28;20106;-70
2022/11/20 06:26:27;;;;;;;4.47;0.70;;;14.00;99.90;;;;;;5088506;28;20579;-70
2022/11/20 06:28:55;;;;;;;1.50;0.60;;;13.90;99.90;;;;;;5093473;28;20099;-70
2022/11/20 06:31:23;;;;;;;3.00;0.70;;;13.90;99.90;;;;;;5093535;28;20030;-71
2022/11/20 06:33:50;;;;;;;2.88;0.93;;;13.80;99.90;;;;;;5100099;28;20028;-71
2022/11/20 06:36:19;;;;;;;4.72;0.60;;;13.80;99.90;;;;;;5113485;28;20024;-70
2022/11/20 06:38:45;;;;;;;4.00;0.77;;;13.80;99.90;;;;;;5113320;28;20043;-70
2022/11/20 06:41:15;;;;;;;1.20;0.57;;;13.80;99.90;;;;;;5113637;28;20020;-70
2022/11/20 06:43:41;;;;;;;3.75;0.68;;;13.80;99.90;;;;;;5113646;28;20088;-70
2022/11/20 06:46:09;;;;;;;3.42;0.70;;;13.70;99.90;;;;;;5113335;28;20437;-70
2022/11/20 06:48:35;;;;;;;3.17;0.85;;;13.80;99.90;;;;;;5113185;28;20031;-70
2022/11/20 06:51:04;;;;;;;7.17;0.80;;;13.80;99.90;;;;;;5112284;28;20055;-71
2022/11/20 06:53:30;;;;;;;3.92;0.77;;;13.80;99.90;;;;;;5113231;28;20524;-70
2022/11/20 06:56:00;;;;;;;2.10;0.70;;;13.80;99.90;;;;;;5112997;28;20024;-70
2022/11/20 06:58:30;;;;;;;2.03;0.70;;;13.90;99.90;;;;;;5096892;28;20372;-71
2022/11/20 07:01:01;;;;;;;2.42;0.75;;;13.80;99.90;;;;;;5093009;28;20066;-71
2022/11/20 07:03:27;;;;;;;6.60;1.10;;;13.80;99.90;;;;;;5093192;28;20035;-69
2022/11/20 07:05:58;;;;;;;3.35;0.88;;;13.70;99.90;;;;;;5092952;28;20062;-70
2022/11/20 07:08:24;;;;;;;3.05;0.70;;;13.60;99.90;;;;;;5092991;28;20028;-71
2022/11/20 07:10:50;;;;;;;4.30;0.50;;;13.50;99.90;;;;;;5092500;28;20028;-72
2022/11/20 07:13:16;;;;;;;2.90;0.60;;;13.50;99.90;;;;;;5092883;28;20099;-71
2022/11/20 07:15:43;;;;;;;4.25;0.70;;;13.50;99.90;;;;;;5092718;28;20095;-71
2022/11/20 07:18:09;;;;;;;3.40;0.77;;;13.40;99.90;;;;;;5092567;28;20085;-71
2022/11/20 07:20:35;;;;;;;8.10;1.35;;;13.40;99.90;;;;;;5092633;28;20335;-70
2022/11/20 07:23:01;;;;;;;1.63;0.60;;;13.30;99.90;;;;;;5099185;28;20460;-71
2022/11/20 07:25:28;;;;;;;2.42;0.63;;;13.30;99.90;;;;;;5112901;28;20026;-70
2022/11/20 07:28:01;;;;;;;2.47;0.80;;;13.30;99.90;;;;;;5112918;28;20027;-71
2022/11/20 07:30:28;;;;;;;3.72;0.80;;;13.40;99.90;;;;;;5112942;28;20102;-70
2022/11/20 07:32:55;;;;;;;1.70;0.50;;;13.40;99.90;;;;;;5112643;28;20020;-71
2022/11/20 07:35:22;;;;;;;2.33;0.57;;;13.30;99.90;;;;;;5112835;28;20037;-79
2022/11/20 07:37:48;;;;;;;5.22;0.77;;;13.30;99.90;;;;;;5112562;28;20056;-77
2022/11/20 07:40:15;;;;;;;3.05;0.60;;;13.40;99.90;;;;;;5112792;28;20034;-78
2022/11/20 07:42:51;;;;;;;4.45;0.90;;;13.50;99.90;;;;;;5113026;28;20471;-78
2022/11/20 07:45:18;;;;;;;1.95;0.60;;;13.60;99.90;;;;;;5094208;28;20596;-78
2022/11/20 07:47:44;;;;;;;4.35;0.70;;;13.60;99.90;;;;;;5113319;28;20035;-80
2022/11/20 07:50:11;;;;;;;1.57;0.50;;;13.60;99.90;;;;;;5112569;28;20077;-79
2022/11/20 07:52:37;;;;;;;3.92;0.73;;;13.50;99.90;;;;;;5113033;28;20030;-79
2022/11/20 07:55:04;;;;;;;1.75;0.63;;;13.60;99.90;;;;;;5113001;28;20049;-79
2022/11/20 07:57:30;;;;;;;;;;;13.60;99.90;;;;;;5113217;28;20024;-80
2022/11/20 07:59:56;;;;;;;1.02;0.47;;;13.60;99.90;;;;;;5112450;28;19914;-80
2022/11/20 08:02:22;;;;;;;2.33;0.73;;;13.60;99.90;;;;;;5112412;28;20035;-80
2022/11/20 08:04:49;;;;;;;3.93;0.70;;;13.50;99.90;;;;;;5112599;28;20103;-79
2022/11/20 08:07:15;;;;;;;4.10;0.90;;;13.60;99.90;;;;;;5112628;28;20645;-79
2022/11/20 08:09:41;;;;;;;4.82;1.00;;;13.60;99.90;;;;;;5112582;28;20266;-80
2022/11/20 08:14:51;;;;;;;4.80;0.85;;;13.40;99.90;;;;;;5112519;28;20070;-80
2022/11/20 08:17:17;;;;;;;3.47;0.70;;;13.20;99.90;;;;;;5093646;28;20447;-79
2022/11/20 08:19:43;;;;;;;1.67;0.57;;;13.20;99.90;;;;;;5112065;28;20032;-79
2022/11/20 08:22:09;;;;;;;2.00;0.57;;;13.20;99.90;;;;;;5112318;28;20309;-80
2022/11/20 08:24:35;;;;;;;1.80;0.50;;;13.20;99.90;;;;;;5112169;28;20098;-79
2022/11/20 08:27:01;;;;;;;1.47;0.50;;;13.30;99.90;;;;;;5112318;28;20455;-80
2022/11/20 08:29:27;;;;;;;3.60;0.60;;;13.40;99.90;;;;;;5112254;28;20020;-79
2022/11/20 08:31:53;;;;;;;3.47;0.50;;;13.50;99.90;;;;;;5112275;28;20470;-80
2022/11/20 08:34:19;;;;;;;3.20;0.60;;;13.60;99.90;;;;;;5112148;28;20027;-81
2022/11/20 08:36:46;;;;;;;3.03;0.80;;;13.70;99.90;;;;;;5111909;28;20392;-79
2022/11/20 08:39:17;;;;;;;2.15;0.88;;;13.80;99.90;;;;;;5112025;28;20159;-79
2022/11/20 08:41:44;;;;;;;4.82;0.95;;;13.90;99.90;;;;;;5112278;28;20057;-78
2022/11/20 08:44:10;;;;;;;3.38;0.80;;;13.90;99.90;;;;;;5112284;28;20038;-78
2022/11/20 08:46:39;;;;;;;3.40;0.70;;;13.80;99.90;;;;;;5112272;28;20110;-78
2022/11/20 08:49:10;;;;;;;2.50;0.70;;;13.70;99.90;;;;;;5111647;28;20185;-78
2022/11/20 08:51:37;;;;;;;2.80;0.70;;;13.60;99.90;;;;;;5111597;28;20042;-77
2022/11/20 08:54:03;;;;;;;3.42;0.90;;;13.60;99.90;;;;;;5093577;28;20386;-76
2022/11/20 08:56:30;;;;;;;5.15;1.10;;;13.50;99.90;;;;;;5104481;28;20020;-77
2022/11/20 08:58:59;;;;;;;5.50;0.93;;;13.60;99.90;;;;;;5071492;28;20060;-77
2022/11/20 09:01:26;;;;;;;4.28;0.98;;;13.60;99.90;;;;;;5071260;28;20028;-77
2022/11/20 09:03:52;;;;;;;2.15;0.60;;;13.70;99.90;;;;;;5071265;28;20389;-78
2022/11/20 09:06:18;;;;;;;2.90;0.50;;;13.70;99.90;;;;;;5052673;28;20377;-78
2022/11/20 09:08:44;;;;;;;2.63;0.73;;;13.60;99.90;;;;;;5071354;28;20059;-79
2022/11/20 09:11:11;;;;;;;6.10;1.17;;;13.50;99.90;;;;;;5052483;28;20047;-79
2022/11/20 09:13:37;;;;;;;4.13;0.65;;;13.50;99.90;;;;;;5072456;28;20020;-76
2022/11/20 09:16:08;;;;;;;2.13;0.60;;;13.40;99.90;;;;;;5074797;28;20508;-75
2022/11/20 09:18:38;;;;;;;2.17;0.70;;;13.40;99.90;;;;;;5075171;28;20033;-76
2022/11/20 09:21:10;;;;;;;4.18;1.10;;;13.40;99.90;;;;;;5075413;28;20044;-77
2022/11/20 09:23:37;;;;;;;2.35;0.80;;;13.50;99.90;;;;;;5075263;28;20036;-77
2022/11/20 09:26:09;;;;;;;2.67;0.70;;;13.50;99.90;;;;;;5074764;28;20062;-78
2022/11/20 09:28:35;;;;;;;1.48;0.43;;;13.40;99.90;;;;;;5074825;28;20051;-76
2022/11/20 09:31:06;;;;;;;0.98;0.45;;;13.30;99.90;;;;;;5074900;28;20033;-77
2022/11/20 09:33:32;;;;;;;3.05;0.80;;;13.20;99.90;;;;;;5075168;28;20054;-77
2022/11/20 09:35:58;;;;;;;1.67;0.53;;;13.10;99.90;;;;;;5056346;28;20033;-77
2022/11/20 09:38:24;;;;;;;3.50;0.70;;;13.10;99.90;;;;;;5074881;28;20329;-77
2022/11/20 09:41:04;;;;;;;2.07;0.50;;;13.10;99.90;;;;;;5074415;28;20448;-77
2022/11/20 09:43:58;;;;;;;2.55;0.90;;;13.20;99.90;;;;;;5085622;28;20027;-77
2022/11/20 09:46:34;;;;;;;5.18;1.17;;;13.20;99.90;;;;;;5094690;28;20081;-79
2022/11/20 09:49:21;;;;;;;4.25;1.20;;;13.40;99.90;;;;;;5094398;28;20021;-78
2022/11/20 09:52:19;;;;;;;3.85;1.35;;;13.50;99.90;;;;;;5104633;28;20367;-79
2022/11/20 09:54:46;;;;;;;5.30;0.98;;;13.60;99.90;;;;;;5074599;28;20028;-78
2022/11/20 09:57:17;;;;;;;1.75;0.70;;;13.70;99.90;;;;;;5074107;28;20036;-80
2022/11/20 09:59:46;;;;;;;3.13;0.70;;;13.80;99.90;;;;;;5074891;28;20025;-80
2022/11/20 10:02:20;;;;;;;3.15;0.90;;;13.90;99.90;;;;;;5056038;28;20029;-79
2022/11/20 10:04:55;;;;;;;2.88;0.60;;;13.90;99.90;;;;;;5074173;28;20024;-79
2022/11/20 10:07:35;;;;;;;2.60;0.60;;;14.00;99.90;;;;;;5073784;28;20025;-80
2022/11/20 10:10:01;;;;;;;6.78;0.70;;;14.10;99.90;;;;;;5055677;28;20503;-81
2022/11/20 10:12:30;;;;;;;4.40;0.80;;;14.10;99.90;;;;;;5073331;28;20531;-81
2022/11/20 10:15:27;;;;;;;4.60;0.98;;;14.00;99.90;;;;;;5055475;28;20707;-77
2022/11/20 10:18:23;;;;;;;3.92;0.85;;;14.00;99.90;;;;;;5073775;28;20119;-76
2022/11/20 10:20:56;;;;;;;;;;;14.10;99.90;;;;;;5074036;28;20033;-77
2022/11/20 10:23:38;;;;;;;2.53;0.70;;;14.20;99.90;;;;;;5073713;28;19993;-77
2022/11/20 10:26:44;;;;;;;2.05;0.70;;;14.10;99.90;;;;;;5072342;28;20044;-76
2022/11/20 10:29:15;;;;;;;2.45;0.60;;;14.00;99.90;;;;;;5073739;28;20029;-75
2022/11/20 10:31:47;;;;;;;1.55;0.60;;;14.00;99.90;;;;;;5073482;28;20025;-76
2022/11/20 10:34:28;;;;;;;1.00;0.38;;;14.10;99.90;;;;;;5073268;28;20021;-76
2022/11/20 10:37:12;;;;;;;1.92;0.60;;;14.30;99.90;;;;;;5073391;28;20090;-76
2022/11/20 10:40:05;;;;;;;2.90;0.70;;;14.50;99.90;;;;;;5073538;28;20078;-76
2022/11/20 10:42:46;;;;;;;2.95;0.60;;;14.60;99.90;;;;;;5072435;28;20075;-76
2022/11/20 10:45:18;;;;;;;3.28;1.25;;;14.80;99.90;;;;;;5073177;28;20035;-77
2022/11/20 10:47:45;;;;;;;5.57;2.25;;;15.10;99.90;;;;;;5073085;28;20035;-77
2022/11/20 10:50:15;;;;;;;4.63;1.50;;;15.30;99.90;;;;;;5073302;28;20499;-77
2022/11/20 10:53:05;;;;;;;10.32;2.50;;;15.50;99.90;;;;;;5072766;28;20060;-77
2022/11/20 10:56:21;;;;;;;3.67;1.60;;;15.70;99.90;;;;;;5033693;28;20044;-78
2022/11/20 10:59:05;;;;;;;3.35;1.30;;;15.80;99.90;;;;;;4991167;28;20236;-75
2022/11/20 11:01:31;;;;;;;4.55;0.90;;;15.90;99.90;;;;;;4991102;28;20426;-77
2022/11/20 11:03:58;;;;;;;3.33;1.25;;;15.90;99.90;;;;;;4974895;28;20169;-78
2022/11/20 11:06:26;;;;;;;;;;;15.90;99.90;;;;;;4991700;28;20030;-75
2022/11/20 11:08:56;;;;;;;8.10;4.53;;;15.90;99.90;;;;;;4991118;28;19906;-77
2022/11/20 11:11:24;;;;;;;6.72;3.90;;;15.90;99.90;;;;;;4985103;28;20166;-75
2022/11/20 11:13:50;;;;;;;10.30;3.53;;;15.90;99.90;;;;;;4971864;28;20118;-77
2022/11/20 11:16:26;;;;;;;11.80;5.30;;;15.90;99.90;;;;;;4971896;28;20023;-76
2022/11/20 11:19:03;;;;;;;8.25;3.85;;;15.90;99.90;;;;;;4971684;28;20106;-75
2022/11/20 11:21:29;;;;;;;5.85;1.90;;;16.00;99.90;;;;;;4971793;28;20046;-76
2022/11/20 11:24:04;;;;;;;5.40;2.28;;;15.90;99.90;;;;;;4986152;28;20473;-74
2022/11/20 11:26:30;;;;;;;7.40;2.95;;;16.10;99.90;;;;;;5010610;28;20026;-76
2022/11/20 11:29:00;;;;;;;5.97;1.65;;;16.10;99.90;;;;;;5010702;28;20037;-75
2022/11/20 11:31:31;;;;;;;3.78;1.70;;;16.10;99.90;;;;;;4994155;28;20458;-74
2022/11/20 11:34:05;;;;;;;3.28;1.38;;;16.10;99.90;;;;;;5029772;28;20033;-73
2022/11/20 11:36:33;;;;;;;6.82;1.80;;;16.10;99.90;;;;;;5051860;28;20029;-74
2022/11/20 11:39:01;;;;;;;5.57;2.13;;;16.00;99.90;;;;;;5033867;28;20041;-73
2022/11/20 11:41:31;;;;;;;4.70;1.70;;;16.10;99.90;;;;;;5051864;28;20048;-74
2022/11/20 11:47:30;;;;;;;3.88;1.38;;;16.00;99.90;;;;;;5051968;28;20103;-73
2022/11/20 11:50:08;;;;;;;4.40;1.13;;;16.10;99.90;;;;;;5051718;28;20075;-74
2022/11/20 11:53:28;;;;;;;5.93;0.90;;;16.00;99.90;;;;;;5052217;28;20029;-75
2022/11/20 11:56:06;;;;;;;3.05;0.90;;;16.00;99.90;;;;;;4990351;28;20030;-75
2022/11/20 11:58:51;;;;;;;4.35;1.10;;;16.10;99.90;;;;;;4990713;28;20046;-74
2022/11/20 12:01:43;;;;;;;2.95;0.90;;;16.10;99.90;;;;;;4990476;28;20042;-75
2022/11/20 12:04:25;;;;;;;3.60;1.00;;;16.00;99.90;;;;;;4990156;28;20044;-74
2022/11/20 12:07:01;;;;;;;5.05;0.90;;;16.10;99.90;;;;;;4990416;28;20536;-75
2022/11/20 12:09:37;;;;;;;5.77;0.90;;;16.10;99.90;;;;;;4990504;28;20450;-74
2022/11/20 12:12:14;;;;;;;4.28;1.02;;;16.10;99.90;;;;;;5001586;28;20288;-75
2022/11/20 12:14:42;;;;;;;;;;;16.20;99.90;;;;;;5010599;28;20052;-74
2022/11/20 12:17:12;;;;;;;10.00;2.03;;;16.10;99.90;;;;;;4993226;28;19913;-75
2022/11/20 12:19:38;;;;;;;9.38;1.35;;;16.00;99.90;;;;;;5009761;28;20097;-74
2022/11/20 12:22:29;;;;;;;4.78;1.40;;;16.00;99.90;;;;;;5002930;28;20512;-72
2022/11/20 12:25:11;;;;;;;6.00;1.00;;;16.00;99.90;;;;;;5010120;28;20059;-75
2022/11/20 12:27:46;;;;;;;5.40;0.98;;;15.90;99.90;;;;;;5009761;28;20089;-75
2022/11/20 12:30:18;;;;;;;5.43;1.00;;;15.80;99.90;;;;;;5051209;28;20048;-75
2022/11/20 12:33:25;;;;;;;5.78;1.20;;;15.70;99.90;;;;;;5061718;28;20126;-75
2022/11/20 12:36:28;;;;;;;6.68;1.10;;;15.60;99.90;;;;;;5026251;28;20446;-75
2022/11/20 12:38:57;;;;;;;4.07;1.20;;;15.60;99.90;;;;;;5029441;28;20034;-75
2022/11/20 12:45:11;;;;;;;6.03;1.00;;;15.50;99.90;;;;;;5029456;28;20417;-76
2022/11/20 12:48:11;;;;;;;5.30;0.90;;;15.40;99.90;;;;;;5029752;28;20030;-75
2022/11/20 12:51:13;;;;;;;8.25;1.02;;;15.40;99.90;;;;;;5033260;28;20524;-75
2022/11/20 12:54:11;;;;;;;6.85;0.95;;;15.50;99.90;;;;;;5034601;28;20033;-74
2022/11/20 12:56:49;;;;;;;5.32;0.90;;;15.50;99.90;;;;;;5020759;28;20538;-73
2022/11/20 12:59:26;;;;;;;6.30;1.02;;;15.50;99.90;;;;;;5023184;28;20054;-74
2022/11/20 13:02:10;;;;;;;5.15;1.00;;;15.60;99.90;;;;;;5020699;28;20501;-73
2022/11/20 13:04:36;;;;;;;5.05;0.90;;;15.70;99.90;;;;;;5022987;28;20448;-72
2022/11/20 13:07:10;;;;;;;3.97;0.70;;;15.80;99.90;;;;;;5020614;28;20125;-73
2022/11/20 13:09:42;;;;;;;3.40;0.65;;;15.80;99.90;;;;;;5023071;28;20030;-73
2022/11/20 13:12:17;;;;;;;4.07;0.70;;;15.90;99.90;;;;;;5032742;28;20105;-76
2022/11/20 13:14:54;;;;;;;3.15;0.75;;;16.10;99.90;;;;;;5074591;28;20024;-74